createdAt,value
2023-02-24T00:00:42.161Z,64.02
2023-02-24T00:03:27.320Z,63.15
2023-02-24T00:06:12.320Z,62.58
2023-02-24T00:08:57.314Z,67.26
2023-02-24T00:11:42.064Z,66.57
2023-02-24T00:14:27.150Z,66.89
2023-02-24T00:17:12.210Z,67.96
2023-02-24T00:19:57.589Z,68.67
2023-02-24T00:22:42.603Z,68.22
2023-02-24T00:25:27.441Z,68.63
2023-02-24T00:28:12.499Z,68.28
2023-02-24T00:30:57.569Z,67.88
2023-02-24T00:33:42.862Z,67.77
2023-02-24T00:36:27.738Z,67.45
2023-02-24T00:39:12.669Z,66.46
2023-02-24T00:41:57.539Z,66.47
2023-02-24T00:44:42.480Z,65.38
2023-02-24T00:47:27.415Z,64.16
2023-02-24T00:50:12.270Z,64.30
2023-02-24T00:52:57.337Z,63.55
2023-02-24T00:55:42.201Z,64.42
2023-02-24T00:58:27.082Z,64.11
2023-02-24T01:01:11.954Z,63.65
2023-02-24T01:03:56.851Z,64.50
2023-02-24T01:06:41.770Z,62.96
2023-02-24T01:09:26.689Z,63.37
2023-02-24T01:12:11.850Z,63.61
2023-02-24T01:14:56.778Z,63.97
2023-02-24T01:17:41.773Z,63.07
2023-02-24T01:20:26.543Z,62.94
2023-02-24T01:23:11.394Z,63.08
2023-02-24T01:25:56.193Z,63.78
2023-02-24T01:28:41.058Z,64.68
2023-02-24T01:31:26.281Z,63.60
2023-02-24T01:34:11.242Z,64.58
2023-02-24T01:36:56.269Z,65.48
2023-02-24T01:39:41.054Z,65.26
2023-02-24T01:42:26.035Z,66.02
2023-02-24T01:45:10.886Z,65.54
2023-02-24T01:47:55.912Z,65.31
2023-02-24T01:50:40.857Z,65.07
2023-02-24T01:53:25.779Z,65.81
2023-02-24T01:56:10.646Z,65.93
2023-02-24T01:58:55.379Z,64.69
2023-02-24T02:01:40.507Z,64.22
2023-02-24T02:04:25.691Z,65.63
2023-02-24T02:07:10.812Z,63.95
2023-02-24T02:09:55.634Z,65.27
2023-02-24T02:12:40.577Z,63.64
2023-02-24T02:15:25.593Z,63.15
2023-02-24T02:18:10.435Z,62.59
2023-02-24T02:20:55.288Z,64.20
2023-02-24T02:23:40.160Z,62.71
2023-02-24T02:26:25.123Z,63.71
2023-02-24T02:29:09.881Z,62.56
2023-02-24T02:31:54.860Z,63.89
2023-02-24T02:34:39.558Z,63.06
2023-02-24T02:37:24.615Z,63.44
2023-02-24T02:40:09.492Z,62.14
2023-02-24T02:42:54.469Z,62.45
2023-02-24T02:45:39.530Z,63.33
2023-02-24T02:48:24.401Z,62.98
2023-02-24T02:51:09.358Z,62.89
2023-02-24T02:53:54.165Z,63.35
2023-02-24T02:56:39.134Z,62.18
2023-02-24T02:59:23.944Z,62.18
2023-02-24T03:02:09.082Z,65.14
2023-02-24T03:04:53.884Z,65.66
2023-02-24T03:07:38.772Z,63.44
2023-02-24T03:10:23.871Z,65.42
2023-02-24T03:13:08.789Z,65.78
2023-02-24T03:15:53.879Z,63.80
2023-02-24T03:18:38.745Z,63.25
2023-02-24T03:21:24.181Z,65.34
2023-02-24T03:24:09.078Z,65.44
2023-02-24T03:26:54.043Z,64.66
2023-02-24T03:29:38.887Z,67.73
2023-02-24T03:32:23.725Z,68.47
2023-02-24T03:35:09.126Z,69.84
2023-02-24T03:37:54.019Z,68.25
2023-02-24T03:40:39.078Z,68.21
2023-02-24T03:43:24.007Z,69.26
2023-02-24T03:46:08.965Z,66.59
2023-02-24T03:48:54.326Z,69.15
2023-02-24T03:51:39.313Z,68.11
2023-02-24T03:54:24.316Z,66.23
2023-02-24T03:57:09.086Z,68.42
2023-02-24T03:59:54.095Z,68.02
2023-02-24T04:02:38.912Z,66.91
2023-02-24T04:05:23.810Z,65.71
2023-02-24T04:08:08.722Z,64.73
2023-02-24T04:10:53.576Z,64.99
2023-02-24T04:13:38.410Z,63.72
2023-02-24T04:16:23.241Z,63.95
2023-02-24T04:19:08.252Z,66.60
2023-02-24T04:21:53.005Z,64.25
2023-02-24T04:24:38.174Z,63.63
2023-02-24T04:27:22.995Z,64.31
2023-02-24T04:30:07.860Z,65.39
2023-02-24T04:32:52.636Z,63.79
2023-02-24T04:35:37.665Z,63.48
2023-02-24T04:38:22.473Z,63.66
2023-02-24T04:41:07.369Z,65.33
2023-02-24T04:43:52.293Z,64.04
2023-02-24T04:46:37.254Z,66.48
2023-02-24T04:49:22.201Z,64.64
2023-02-24T04:52:06.992Z,64.68
2023-02-24T04:54:51.863Z,66.16
2023-02-24T04:57:36.625Z,65.15
2023-02-24T05:00:21.724Z,62.97
2023-02-24T05:03:06.644Z,63.99
2023-02-24T05:05:51.496Z,63.66
2023-02-24T05:08:36.390Z,65.40
2023-02-24T05:11:21.502Z,66.14
2023-02-24T05:14:06.627Z,65.70
2023-02-24T05:16:51.539Z,66.90
2023-02-24T05:19:36.440Z,64.36
2023-02-24T05:22:21.455Z,63.32
2023-02-24T05:25:06.355Z,64.35
2023-02-24T05:27:51.204Z,66.22
2023-02-24T05:30:36.244Z,66.20
2023-02-24T05:33:21.592Z,65.24
2023-02-24T05:36:06.527Z,66.33
2023-02-24T05:38:51.447Z,65.49
2023-02-24T05:41:36.295Z,66.28
2023-02-24T05:44:21.327Z,64.94
2023-02-24T05:47:06.302Z,65.34
2023-02-24T05:49:51.562Z,66.87
2023-02-24T05:52:36.654Z,67.08
2023-02-24T05:55:21.451Z,66.14
2023-02-24T05:58:06.396Z,65.91
2023-02-24T06:00:51.165Z,67.53
2023-02-24T06:03:36.212Z,66.26
2023-02-24T06:06:20.962Z,66.52
2023-02-24T06:09:05.918Z,68.27
2023-02-24T06:11:50.758Z,68.54
2023-02-24T06:14:35.696Z,67.40
2023-02-24T06:17:20.541Z,68.96
2023-02-24T06:20:05.473Z,67.53
2023-02-24T06:22:50.365Z,68.79
2023-02-24T06:25:35.192Z,66.31
2023-02-24T06:28:20.092Z,67.57
2023-02-24T06:31:04.941Z,68.37
2023-02-24T06:33:49.894Z,69.56
2023-02-24T06:36:34.789Z,69.71
2023-02-24T06:39:19.710Z,70.28
2023-02-24T06:42:04.578Z,69.91
2023-02-24T06:44:49.555Z,69.89
2023-02-24T06:47:34.587Z,69.57
2023-02-24T06:50:19.343Z,70.52
2023-02-24T06:53:04.122Z,68.61
2023-02-24T06:55:49.075Z,68.56
2023-02-24T06:58:34.010Z,68.44
2023-02-24T07:01:19.106Z,69.38
2023-02-24T07:04:04.382Z,67.86
2023-02-24T07:06:49.168Z,69.35
2023-02-24T07:09:33.941Z,68.45
2023-02-24T07:12:18.812Z,67.85
2023-02-24T07:15:03.753Z,66.96
2023-02-24T07:17:48.597Z,66.51
2023-02-24T07:20:33.391Z,65.71
2023-02-24T07:23:18.287Z,65.98
2023-02-24T07:26:03.122Z,65.22
2023-02-24T07:28:48.125Z,65.22
2023-02-24T07:31:33.081Z,64.53
2023-02-24T07:34:17.889Z,64.37
2023-02-24T07:37:02.978Z,64.84
2023-02-24T07:39:47.780Z,65.22
2023-02-24T07:42:32.777Z,63.75
2023-02-24T07:45:17.740Z,63.62
2023-02-24T07:48:02.583Z,64.81
2023-02-24T07:50:47.301Z,63.82
2023-02-24T07:53:32.152Z,63.95
2023-02-24T07:56:17.030Z,64.56
2023-02-24T07:59:01.921Z,64.00
2023-02-24T08:01:46.708Z,63.91
2023-02-24T08:04:31.562Z,63.43
2023-02-24T08:07:16.452Z,65.49
2023-02-24T08:10:01.232Z,64.65
2023-02-24T08:12:46.236Z,64.77
2023-02-24T08:15:31.149Z,63.65
2023-02-24T08:18:16.256Z,64.69
2023-02-24T08:21:01.072Z,65.29
2023-02-24T08:23:46.004Z,64.65
2023-02-24T08:26:30.961Z,64.02
2023-02-24T08:29:15.797Z,63.36
2023-02-24T08:32:01.359Z,62.74
2023-02-24T08:34:46.682Z,62.68
2023-02-24T08:37:31.765Z,62.92
2023-02-24T08:40:16.677Z,62.70
2023-02-24T08:43:01.503Z,61.72
2023-02-24T08:45:46.426Z,61.96
2023-02-24T08:48:31.437Z,60.95
2023-02-24T08:51:16.281Z,60.84
2023-02-24T08:54:01.082Z,60.63
2023-02-24T08:56:45.929Z,60.33
2023-02-24T08:59:30.952Z,60.34
2023-02-24T09:02:15.794Z,58.76
2023-02-24T09:05:00.674Z,58.12
2023-02-24T09:07:45.520Z,58.40
2023-02-24T09:10:30.474Z,57.83
2023-02-24T09:13:15.306Z,56.97
2023-02-24T09:16:00.215Z,56.60
2023-02-24T09:18:45.039Z,56.03
2023-02-24T09:21:29.862Z,55.88
2023-02-24T09:24:16.852Z,56.80
2023-02-24T09:27:02.185Z,56.11
2023-02-24T09:29:47.283Z,55.99
2023-02-24T09:32:32.301Z,54.11
2023-02-24T09:35:17.512Z,54.73
2023-02-24T09:38:02.232Z,55.46
2023-02-24T09:40:47.202Z,53.71
2023-02-24T09:43:32.051Z,54.86
2023-02-24T09:46:17.086Z,55.43
2023-02-24T09:49:02.247Z,53.75
2023-02-24T09:51:47.119Z,54.53
2023-02-24T09:54:32.176Z,53.96
2023-02-24T09:57:17.082Z,54.10
2023-02-24T10:00:02.551Z,54.62
2023-02-24T10:02:47.342Z,54.59
2023-02-24T10:05:32.349Z,52.59
2023-02-24T10:08:17.169Z,51.08
2023-02-24T10:11:02.213Z,52.59
2023-02-24T10:13:47.211Z,52.14
2023-02-24T10:16:32.073Z,52.62
2023-02-24T10:19:16.887Z,51.61
2023-02-24T10:22:01.725Z,52.00
2023-02-24T10:24:46.648Z,51.83
2023-02-24T10:27:31.417Z,52.55
2023-02-24T10:30:16.309Z,52.24
2023-02-24T10:33:01.269Z,51.73
2023-02-24T10:35:46.514Z,52.49
2023-02-24T10:38:31.514Z,52.71
2023-02-24T10:41:16.413Z,51.89
2023-02-24T10:44:01.450Z,55.26
2023-02-24T10:46:46.758Z,54.99
2023-02-24T10:49:31.973Z,55.11
2023-02-24T10:52:16.901Z,52.81
2023-02-24T10:55:01.769Z,52.65
2023-02-24T10:57:58.102Z,52.12
2023-02-24T11:00:43.762Z,50.78
2023-02-24T11:03:32.949Z,49.50
2023-02-24T11:06:17.869Z,49.10
2023-02-24T11:09:02.769Z,50.63
2023-02-24T11:11:47.586Z,51.02
2023-02-24T11:14:32.381Z,47.54
2023-02-24T11:17:17.182Z,48.87
2023-02-24T11:20:02.174Z,47.06
2023-02-24T11:22:46.966Z,47.98
2023-02-24T11:25:31.862Z,48.10
2023-02-24T11:28:16.890Z,46.77
2023-02-24T11:31:01.897Z,47.48
2023-02-24T11:33:47.260Z,47.13
2023-02-24T11:36:32.168Z,47.25
2023-02-24T11:39:21.257Z,46.85
2023-02-24T11:42:06.474Z,45.69
2023-02-24T11:44:51.418Z,47.08
2023-02-24T11:47:36.306Z,45.04
2023-02-24T11:50:21.106Z,44.16
2023-02-24T11:53:06.010Z,44.32
2023-02-24T11:55:50.899Z,40.06
2023-02-24T11:58:35.801Z,41.18
2023-02-24T12:01:21.730Z,39.05
2023-02-24T12:04:07.056Z,39.05
2023-02-24T12:06:51.903Z,36.75
2023-02-24T12:09:36.799Z,37.42
2023-02-24T12:12:22.232Z,36.55
2023-02-24T12:15:06.998Z,37.27
2023-02-24T12:17:51.705Z,35.40
2023-02-24T12:20:36.590Z,35.66
2023-02-24T12:23:21.478Z,36.70
2023-02-24T12:26:06.400Z,36.80
2023-02-24T12:28:51.723Z,36.35
2023-02-24T12:31:36.685Z,37.39
2023-02-24T12:34:21.889Z,36.13
2023-02-24T12:37:06.706Z,36.61
2023-02-24T12:39:51.585Z,35.49
2023-02-24T12:42:36.544Z,35.36
2023-02-24T12:45:21.451Z,35.85
2023-02-24T12:48:06.235Z,35.08
2023-02-24T12:50:51.125Z,35.52
2023-02-24T12:53:35.863Z,36.22
2023-02-24T12:56:20.786Z,37.30
2023-02-24T12:59:05.679Z,37.11
2023-02-24T13:01:50.932Z,36.12
2023-02-24T13:04:35.755Z,33.92
2023-02-24T13:07:20.746Z,35.36
2023-02-24T13:10:05.659Z,34.10
2023-02-24T13:12:50.511Z,34.02
2023-02-24T13:15:35.424Z,34.87
2023-02-24T13:18:20.432Z,32.74
2023-02-24T13:21:05.465Z,33.90
2023-02-24T13:23:50.272Z,33.55
2023-02-24T13:26:35.231Z,32.45
2023-02-24T13:29:20.142Z,33.36
2023-02-24T13:32:05.088Z,33.40
2023-02-24T13:34:50.471Z,32.10
2023-02-24T13:37:35.157Z,33.26
2023-02-24T13:40:20.136Z,32.55
2023-02-24T13:43:05.011Z,32.68
2023-02-24T13:45:49.856Z,31.64
2023-02-24T13:48:34.750Z,31.64
2023-02-24T13:51:20.024Z,32.17
2023-02-24T13:54:05.088Z,33.71
2023-02-24T13:56:49.852Z,32.17
2023-02-24T13:59:34.808Z,31.40
2023-02-24T14:02:21.006Z,30.81
2023-02-24T14:05:06.044Z,32.93
2023-02-24T14:07:50.838Z,31.19
2023-02-24T14:10:35.791Z,32.99
2023-02-24T14:13:20.667Z,32.30
2023-02-24T14:16:05.673Z,33.45
2023-02-24T14:18:50.590Z,32.23
2023-02-24T14:21:35.383Z,32.82
2023-02-24T14:24:20.292Z,33.17
2023-02-24T14:27:05.309Z,32.61
2023-02-24T14:29:50.226Z,31.60
2023-02-24T14:32:35.217Z,31.57
2023-02-24T14:35:20.591Z,32.75
2023-02-24T14:38:05.412Z,32.29
2023-02-24T14:40:50.218Z,30.48
2023-02-24T14:43:34.966Z,32.35
2023-02-24T14:46:20.195Z,31.78
2023-02-24T14:49:06.031Z,32.11
2023-02-24T14:51:50.787Z,31.61
2023-02-24T14:54:35.807Z,31.29
2023-02-24T14:57:20.645Z,30.74
2023-02-24T15:00:05.569Z,30.73
2023-02-24T15:02:50.511Z,32.84
2023-02-24T15:05:35.316Z,32.26
2023-02-24T15:08:20.122Z,31.95
2023-02-24T15:11:05.154Z,31.79
2023-02-24T15:13:50.153Z,32.14
2023-02-24T15:16:34.923Z,32.97
2023-02-24T15:19:19.839Z,33.67
2023-02-24T15:22:04.811Z,34.98
2023-02-24T15:24:49.799Z,36.73
2023-02-24T15:27:34.945Z,37.54
2023-02-24T15:30:20.175Z,38.04
2023-02-24T15:33:05.314Z,39.20
2023-02-24T15:35:50.294Z,40.63
2023-02-24T15:38:35.222Z,40.87
2023-02-24T15:41:20.105Z,42.50
2023-02-24T15:44:05.193Z,43.43
2023-02-24T15:46:50.277Z,41.99
2023-02-24T15:49:35.467Z,43.22
2023-02-24T15:52:20.502Z,43.52
2023-02-24T15:55:05.482Z,43.02
2023-02-24T15:57:50.363Z,43.21
2023-02-24T16:00:35.282Z,42.61
2023-02-24T16:03:20.277Z,43.90
2023-02-24T16:06:05.031Z,43.62
2023-02-24T16:08:50.005Z,44.16
2023-02-24T16:11:35.039Z,43.53
2023-02-24T16:14:22.338Z,44.01
2023-02-24T16:17:07.617Z,43.66
2023-02-24T16:19:52.374Z,44.44
2023-02-24T16:22:37.296Z,43.63
2023-02-24T16:25:22.199Z,44.02
2023-02-24T16:28:06.939Z,44.58
2023-02-24T16:30:52.075Z,43.36
2023-02-24T16:33:53.318Z,44.61
2023-02-24T16:36:39.369Z,45.23
2023-02-24T16:39:24.230Z,44.12
2023-02-24T16:42:09.219Z,44.34
2023-02-24T16:44:54.233Z,44.15
2023-02-24T16:47:39.104Z,44.75
2023-02-24T16:50:24.114Z,45.32
2023-02-24T16:53:08.889Z,44.90
2023-02-24T16:55:53.761Z,46.53
2023-02-24T16:58:38.567Z,46.79
2023-02-24T17:01:23.629Z,46.05
2023-02-24T17:04:08.435Z,46.73
2023-02-24T17:06:53.344Z,47.06
2023-02-24T17:09:38.305Z,48.15
2023-02-24T17:12:23.279Z,47.35
2023-02-24T17:15:08.205Z,49.12
2023-02-24T17:17:52.984Z,49.47
2023-02-24T17:20:37.885Z,48.80
2023-02-24T17:23:22.626Z,48.03
2023-02-24T17:26:07.612Z,48.38
2023-02-24T17:28:52.520Z,48.09
2023-02-24T17:31:37.384Z,47.93
2023-02-24T17:34:22.737Z,49.44
2023-02-24T17:37:07.592Z,46.83
2023-02-24T17:39:52.637Z,47.58
2023-02-24T17:42:37.481Z,48.00
2023-02-24T17:45:22.240Z,47.39
2023-02-24T17:48:07.081Z,49.44
2023-02-24T17:50:52.103Z,49.06
2023-02-24T17:53:36.930Z,48.12
2023-02-24T17:56:21.968Z,47.87
2023-02-24T17:59:07.269Z,49.15
2023-02-24T18:01:52.204Z,47.52
2023-02-24T18:04:37.145Z,47.39
2023-02-24T18:07:21.891Z,47.10
2023-02-24T18:10:06.818Z,46.24
2023-02-24T18:12:51.726Z,46.84
2023-02-24T18:15:36.614Z,46.86
2023-02-24T18:18:21.567Z,47.44
2023-02-24T18:21:06.441Z,49.86
2023-02-24T18:23:51.364Z,48.82
2023-02-24T18:26:36.272Z,48.67
2023-02-24T18:29:21.258Z,50.91
2023-02-24T18:32:06.048Z,50.20
2023-02-24T18:34:51.226Z,51.17
2023-02-24T18:37:36.010Z,50.46
2023-02-24T18:40:21.172Z,51.09
2023-02-24T18:43:06.275Z,50.34
2023-02-24T18:45:51.294Z,50.80
2023-02-24T18:48:36.255Z,52.43
2023-02-24T18:51:21.114Z,50.98
2023-02-24T18:54:06.020Z,50.01
2023-02-24T18:56:50.880Z,49.83
2023-02-24T18:59:35.809Z,50.00
2023-02-24T19:02:20.641Z,50.17
2023-02-24T19:05:05.559Z,49.14
2023-02-24T19:07:50.528Z,49.85
2023-02-24T19:10:35.425Z,49.56
2023-02-24T19:13:20.309Z,49.19
2023-02-24T19:16:05.204Z,48.62
2023-02-24T19:18:50.009Z,49.23
2023-02-24T19:21:34.920Z,49.54
2023-02-24T19:24:19.762Z,49.82
2023-02-24T19:27:04.602Z,49.57
2023-02-24T19:29:49.656Z,49.78
2023-02-24T19:32:34.658Z,49.73
2023-02-24T19:35:20.016Z,49.72
2023-02-24T19:38:04.910Z,48.82
2023-02-24T19:40:49.666Z,48.80
2023-02-24T19:43:34.750Z,49.80
2023-02-24T19:46:19.685Z,49.75
2023-02-24T19:49:05.086Z,51.21
2023-02-24T19:51:50.038Z,52.25
2023-02-24T19:54:35.116Z,52.54
2023-02-24T19:57:19.993Z,52.47
2023-02-24T20:00:04.905Z,52.55
2023-02-24T20:02:49.812Z,53.81
2023-02-24T20:05:34.759Z,53.61
2023-02-24T20:08:19.539Z,53.98
2023-02-24T20:11:04.176Z,54.19
2023-02-24T20:13:48.978Z,54.83
2023-02-24T20:16:33.772Z,55.49
2023-02-24T20:19:18.698Z,55.65
2023-02-24T20:22:03.537Z,56.26
2023-02-24T20:24:48.508Z,56.39
2023-02-24T20:27:33.505Z,56.20
2023-02-24T20:30:18.377Z,55.85
2023-02-24T20:33:03.451Z,54.74
2023-02-24T20:35:48.249Z,56.43
2023-02-24T20:38:33.093Z,57.15
2023-02-24T20:41:17.949Z,56.13
2023-02-24T20:44:02.755Z,56.35
2023-02-24T20:46:47.601Z,57.54
2023-02-24T20:49:32.442Z,57.85
2023-02-24T20:52:17.420Z,57.37
2023-02-24T20:55:02.288Z,57.32
2023-02-24T20:57:47.211Z,59.25
2023-02-24T21:00:32.008Z,59.76
2023-02-24T21:03:16.865Z,59.63
2023-02-24T21:06:09.861Z,62.28
2023-02-24T21:09:06.562Z,60.88
2023-02-24T21:11:51.489Z,60.99
2023-02-24T21:14:36.292Z,61.75
2023-02-24T21:17:21.274Z,61.97
2023-02-24T21:20:06.054Z,63.81
2023-02-24T21:22:51.021Z,64.64
2023-02-24T21:25:35.831Z,66.02
2023-02-24T21:28:20.690Z,66.69
2023-02-24T21:31:05.638Z,68.57
2023-02-24T21:33:50.347Z,70.73
2023-02-24T21:36:35.311Z,71.12
2023-02-24T21:39:20.070Z,69.53
2023-02-24T21:42:04.965Z,68.65
2023-02-24T21:44:49.810Z,68.20
2023-02-24T21:47:34.734Z,68.24
2023-02-24T21:50:19.589Z,67.63
2023-02-24T21:53:04.603Z,68.07
2023-02-24T21:55:49.446Z,68.11
2023-02-24T21:58:34.428Z,68.10
2023-02-24T22:01:19.363Z,69.40
2023-02-24T22:04:04.707Z,69.65
2023-02-24T22:06:49.657Z,70.38
2023-02-24T22:09:34.413Z,70.81
2023-02-24T22:12:19.417Z,69.50
2023-02-24T22:15:04.347Z,68.16
2023-02-24T22:17:49.237Z,69.10
2023-02-24T22:20:34.157Z,67.86
2023-02-24T22:23:19.020Z,68.61
2023-02-24T22:26:03.965Z,70.95
2023-02-24T22:28:48.687Z,71.96
2023-02-24T22:31:33.638Z,72.19
2023-02-24T22:34:18.419Z,71.75
2023-02-24T22:37:03.331Z,71.26
2023-02-24T22:39:48.148Z,71.17
2023-02-24T22:42:32.991Z,70.34
2023-02-24T22:45:18.497Z,70.82
2023-02-24T22:48:03.417Z,71.95
2023-02-24T22:50:48.319Z,70.72
2023-02-24T22:53:33.196Z,70.80
2023-02-24T22:56:18.276Z,70.29
2023-02-24T22:59:06.579Z,68.68
2023-02-24T23:01:51.430Z,67.82
2023-02-24T23:04:36.404Z,67.80
2023-02-24T23:07:21.250Z,68.17
2023-02-24T23:10:06.298Z,66.36
2023-02-24T23:12:51.366Z,67.88
2023-02-24T23:15:36.440Z,66.42
2023-02-24T23:18:21.201Z,66.28
2023-02-24T23:21:06.019Z,67.38
2023-02-24T23:23:51.072Z,67.75
2023-02-24T23:26:35.933Z,66.08
2023-02-24T23:29:20.757Z,68.10
2023-02-24T23:32:05.658Z,67.47
2023-02-24T23:34:50.924Z,67.87
2023-02-24T23:37:35.773Z,67.88
2023-02-24T23:40:20.903Z,69.41
2023-02-24T23:43:05.852Z,68.95
2023-02-24T23:45:50.711Z,70.38
2023-02-24T23:48:35.606Z,70.00
2023-02-24T23:51:20.412Z,70.10
2023-02-24T23:54:05.328Z,69.65
2023-02-24T23:56:50.135Z,70.35
2023-02-24T23:59:35.084Z,69.58
